sensor_id;sensor_type;location;lat;lon;timestamp;P1;durP1;ratioP1;P2;durP2;ratioP2
23179;SDS011;11758;45.756;11.432;2023-05-07T00:01:39;11.63;;;10.18;;
23179;SDS011;11758;45.756;11.432;2023-05-07T00:04:05;15.52;;;10.93;;
23179;SDS011;11758;45.756;11.432;2023-05-07T00:06:32;14.30;;;11.57;;
23179;SDS011;11758;45.756;11.432;2023-05-07T00:08:58;20.88;;;11.93;;
23179;SDS011;11758;45.756;11.432;2023-05-07T00:11:26;12.57;;;11.07;;
23179;SDS011;11758;45.756;11.432;2023-05-07T00:13:52;14.75;;;11.88;;
23179;SDS011;11758;45.756;11.432;2023-05-07T00:16:18;10.32;;;9.27;;
23179;SDS011;11758;45.756;11.432;2023-05-07T00:18:44;11.88;;;10.02;;
23179;SDS011;11758;45.756;11.432;2023-05-07T00:21:11;11.77;;;10.40;;
23179;SDS011;11758;45.756;11.432;2023-05-07T00:23:37;12.18;;;10.00;;
23179;SDS011;11758;45.756;11.432;2023-05-07T00:26:03;14.07;;;11.52;;
23179;SDS011;11758;45.756;11.432;2023-05-07T00:28:29;15.32;;;12.45;;
23179;SDS011;11758;45.756;11.432;2023-05-07T00:30:55;15.93;;;12.35;;
23179;SDS011;11758;45.756;11.432;2023-05-07T00:33:22;21.40;;;11.95;;
23179;SDS011;11758;45.756;11.432;2023-05-07T00:35:48;17.63;;;12.68;;
23179;SDS011;11758;45.756;11.432;2023-05-07T00:38:14;16.38;;;13.00;;
23179;SDS011;11758;45.756;11.432;2023-05-07T00:40:40;15.82;;;13.07;;
23179;SDS011;11758;45.756;11.432;2023-05-07T00:43:07;15.57;;;12.77;;
23179;SDS011;11758;45.756;11.432;2023-05-07T00:45:33;14.88;;;11.07;;
23179;SDS011;11758;45.756;11.432;2023-05-07T00:48:00;18.23;;;14.35;;
23179;SDS011;11758;45.756;11.432;2023-05-07T00:50:28;14.80;;;11.75;;
23179;SDS011;11758;45.756;11.432;2023-05-07T00:52:56;19.63;;;12.55;;
23179;SDS011;11758;45.756;11.432;2023-05-07T00:55:22;15.80;;;13.40;;
23179;SDS011;11758;45.756;11.432;2023-05-07T00:57:49;21.23;;;12.80;;
23179;SDS011;11758;45.756;11.432;2023-05-07T01:00:16;14.23;;;12.43;;
23179;SDS011;11758;45.756;11.432;2023-05-07T01:02:42;16.38;;;13.07;;
23179;SDS011;11758;45.756;11.432;2023-05-07T01:05:10;17.00;;;14.23;;
23179;SDS011;11758;45.756;11.432;2023-05-07T01:07:37;16.83;;;14.60;;
23179;SDS011;11758;45.756;11.432;2023-05-07T01:10:04;20.55;;;14.07;;
23179;SDS011;11758;45.756;11.432;2023-05-07T01:12:31;25.08;;;16.05;;
23179;SDS011;11758;45.756;11.432;2023-05-07T01:14:57;18.55;;;13.65;;
23179;SDS011;11758;45.756;11.432;2023-05-07T01:17:24;22.13;;;16.60;;
23179;SDS011;11758;45.756;11.432;2023-05-07T01:19:50;26.05;;;16.95;;
23179;SDS011;11758;45.756;11.432;2023-05-07T01:22:23;17.05;;;13.68;;
23179;SDS011;11758;45.756;11.432;2023-05-07T01:24:52;17.10;;;12.50;;
23179;SDS011;11758;45.756;11.432;2023-05-07T01:27:19;18.83;;;12.90;;
23179;SDS011;11758;45.756;11.432;2023-05-07T01:29:45;16.08;;;11.82;;
23179;SDS011;11758;45.756;11.432;2023-05-07T01:32:11;15.30;;;13.27;;
23179;SDS011;11758;45.756;11.432;2023-05-07T01:34:38;14.20;;;12.02;;
23179;SDS011;11758;45.756;11.432;2023-05-07T01:37:05;16.50;;;12.90;;
23179;SDS011;11758;45.756;11.432;2023-05-07T01:39:35;15.38;;;11.50;;
23179;SDS011;11758;45.756;11.432;2023-05-07T01:42:02;20.77;;;11.52;;
23179;SDS011;11758;45.756;11.432;2023-05-07T01:44:28;12.68;;;11.35;;
23179;SDS011;11758;45.756;11.432;2023-05-07T01:46:54;11.48;;;10.27;;
23179;SDS011;11758;45.756;11.432;2023-05-07T01:49:21;14.05;;;11.15;;
23179;SDS011;11758;45.756;11.432;2023-05-07T01:51:47;22.17;;;15.43;;
23179;SDS011;11758;45.756;11.432;2023-05-07T01:54:13;19.35;;;15.38;;
23179;SDS011;11758;45.756;11.432;2023-05-07T01:56:40;18.55;;;14.77;;
23179;SDS011;11758;45.756;11.432;2023-05-07T01:59:06;17.25;;;14.68;;
23179;SDS011;11758;45.756;11.432;2023-05-07T02:01:32;21.00;;;15.43;;
23179;SDS011;11758;45.756;11.432;2023-05-07T02:03:58;19.40;;;15.07;;
23179;SDS011;11758;45.756;11.432;2023-05-07T02:06:25;18.17;;;15.05;;
23179;SDS011;11758;45.756;11.432;2023-05-07T02:08:51;22.33;;;17.02;;
23179;SDS011;11758;45.756;11.432;2023-05-07T02:11:17;23.90;;;16.02;;
23179;SDS011;11758;45.756;11.432;2023-05-07T02:13:43;25.00;;;16.27;;
23179;SDS011;11758;45.756;11.432;2023-05-07T02:16:09;22.92;;;16.17;;
23179;SDS011;11758;45.756;11.432;2023-05-07T02:18:36;23.50;;;15.88;;
23179;SDS011;11758;45.756;11.432;2023-05-07T02:21:02;23.08;;;17.83;;
23179;SDS011;11758;45.756;11.432;2023-05-07T02:23:28;22.85;;;17.13;;
23179;SDS011;11758;45.756;11.432;2023-05-07T02:25:54;24.60;;;18.30;;
23179;SDS011;11758;45.756;11.432;2023-05-07T02:28:20;21.77;;;16.17;;
23179;SDS011;11758;45.756;11.432;2023-05-07T02:30:47;23.10;;;16.85;;
23179;SDS011;11758;45.756;11.432;2023-05-07T02:33:13;24.38;;;16.55;;
23179;SDS011;11758;45.756;11.432;2023-05-07T02:35:39;22.13;;;15.75;;
23179;SDS011;11758;45.756;11.432;2023-05-07T02:38:05;22.67;;;16.02;;
23179;SDS011;11758;45.756;11.432;2023-05-07T02:40:31;17.88;;;14.13;;
23179;SDS011;11758;45.756;11.432;2023-05-07T02:43:03;20.80;;;14.95;;
23179;SDS011;11758;45.756;11.432;2023-05-07T02:45:30;18.77;;;14.68;;
23179;SDS011;11758;45.756;11.432;2023-05-07T02:47:56;19.75;;;16.45;;
23179;SDS011;11758;45.756;11.432;2023-05-07T02:50:22;19.90;;;14.63;;
23179;SDS011;11758;45.756;11.432;2023-05-07T02:52:49;19.38;;;14.40;;
23179;SDS011;11758;45.756;11.432;2023-05-07T02:55:15;18.67;;;14.00;;
23179;SDS011;11758;45.756;11.432;2023-05-07T02:57:41;16.90;;;13.45;;
23179;SDS011;11758;45.756;11.432;2023-05-07T03:00:14;16.30;;;12.57;;
23179;SDS011;11758;45.756;11.432;2023-05-07T03:02:41;16.45;;;13.93;;
23179;SDS011;11758;45.756;11.432;2023-05-07T03:05:07;18.10;;;14.07;;
23179;SDS011;11758;45.756;11.432;2023-05-07T03:07:34;19.65;;;14.48;;
23179;SDS011;11758;45.756;11.432;2023-05-07T03:10:00;26.85;;;15.98;;
23179;SDS011;11758;45.756;11.432;2023-05-07T03:12:26;22.67;;;16.48;;
23179;SDS011;11758;45.756;11.432;2023-05-07T03:14:52;22.63;;;15.93;;
23179;SDS011;11758;45.756;11.432;2023-05-07T03:17:18;20.38;;;15.88;;
23179;SDS011;11758;45.756;11.432;2023-05-07T03:19:45;20.80;;;15.30;;
23179;SDS011;11758;45.756;11.432;2023-05-07T03:22:11;18.80;;;14.32;;
23179;SDS011;11758;45.756;11.432;2023-05-07T03:24:37;19.35;;;14.63;;
23179;SDS011;11758;45.756;11.432;2023-05-07T03:27:03;22.05;;;14.75;;
23179;SDS011;11758;45.756;11.432;2023-05-07T03:29:29;16.15;;;13.32;;
23179;SDS011;11758;45.756;11.432;2023-05-07T03:31:55;15.77;;;13.50;;
23179;SDS011;11758;45.756;11.432;2023-05-07T03:34:21;15.65;;;13.95;;
23179;SDS011;11758;45.756;11.432;2023-05-07T03:36:50;20.17;;;15.50;;
23179;SDS011;11758;45.756;11.432;2023-05-07T03:39:17;18.92;;;14.23;;
23179;SDS011;11758;45.756;11.432;2023-05-07T03:41:43;17.40;;;14.38;;
23179;SDS011;11758;45.756;11.432;2023-05-07T03:44:09;19.08;;;14.07;;
23179;SDS011;11758;45.756;11.432;2023-05-07T03:46:35;17.30;;;14.00;;
23179;SDS011;11758;45.756;11.432;2023-05-07T03:49:02;19.98;;;14.10;;
23179;SDS011;11758;45.756;11.432;2023-05-07T03:51:28;15.98;;;13.63;;
23179;SDS011;11758;45.756;11.432;2023-05-07T03:53:54;19.45;;;14.43;;
23179;SDS011;11758;45.756;11.432;2023-05-07T03:56:26;17.90;;;13.88;;
23179;SDS011;11758;45.756;11.432;2023-05-07T03:58:53;15.68;;;13.80;;
23179;SDS011;11758;45.756;11.432;2023-05-07T04:01:19;18.95;;;14.60;;
23179;SDS011;11758;45.756;11.432;2023-05-07T04:03:45;18.70;;;14.63;;
23179;SDS011;11758;45.756;11.432;2023-05-07T04:06:11;17.48;;;14.55;;
23179;SDS011;11758;45.756;11.432;2023-05-07T04:08:37;22.00;;;15.10;;
23179;SDS011;11758;45.756;11.432;2023-05-07T04:11:03;17.23;;;13.65;;
23179;SDS011;11758;45.756;11.432;2023-05-07T04:13:30;18.15;;;13.07;;
23179;SDS011;11758;45.756;11.432;2023-05-07T04:15:56;18.20;;;12.38;;
23179;SDS011;11758;45.756;11.432;2023-05-07T04:18:22;14.00;;;12.30;;
23179;SDS011;11758;45.756;11.432;2023-05-07T04:20:48;15.10;;;13.15;;
23179;SDS011;11758;45.756;11.432;2023-05-07T04:23:15;16.13;;;13.40;;
23179;SDS011;11758;45.756;11.432;2023-05-07T04:25:41;15.60;;;13.68;;
23179;SDS011;11758;45.756;11.432;2023-05-07T04:28:07;16.38;;;13.45;;
23179;SDS011;11758;45.756;11.432;2023-05-07T04:30:33;16.27;;;12.50;;
23179;SDS011;11758;45.756;11.432;2023-05-07T04:32:59;19.05;;;13.65;;
23179;SDS011;11758;45.756;11.432;2023-05-07T04:35:26;15.13;;;12.20;;
23179;SDS011;11758;45.756;11.432;2023-05-07T04:37:52;16.73;;;12.18;;
23179;SDS011;11758;45.756;11.432;2023-05-07T04:40:18;15.55;;;11.50;;
23179;SDS011;11758;45.756;11.432;2023-05-07T04:42:45;12.57;;;11.20;;
23179;SDS011;11758;45.756;11.432;2023-05-07T04:45:11;12.93;;;10.90;;
23179;SDS011;11758;45.756;11.432;2023-05-07T04:47:37;14.77;;;11.55;;
23179;SDS011;11758;45.756;11.432;2023-05-07T04:50:04;18.00;;;12.63;;
23179;SDS011;11758;45.756;11.432;2023-05-07T04:52:31;13.52;;;12.15;;
23179;SDS011;11758;45.756;11.432;2023-05-07T04:54:58;14.43;;;12.20;;
23179;SDS011;11758;45.756;11.432;2023-05-07T04:57:25;17.42;;;12.98;;
23179;SDS011;11758;45.756;11.432;2023-05-07T04:59:51;21.20;;;13.55;;
23179;SDS011;11758;45.756;11.432;2023-05-07T05:02:17;16.95;;;12.80;;
23179;SDS011;11758;45.756;11.432;2023-05-07T05:04:43;16.60;;;14.02;;
23179;SDS011;11758;45.756;11.432;2023-05-07T05:07:10;16.92;;;13.30;;
23179;SDS011;11758;45.756;11.432;2023-05-07T05:09:36;17.10;;;14.30;;
23179;SDS011;11758;45.756;11.432;2023-05-07T05:12:02;21.90;;;13.38;;
23179;SDS011;11758;45.756;11.432;2023-05-07T05:14:28;18.13;;;13.55;;
23179;SDS011;11758;45.756;11.432;2023-05-07T05:16:55;20.77;;;13.82;;
23179;SDS011;11758;45.756;11.432;2023-05-07T05:19:21;20.45;;;14.98;;
23179;SDS011;11758;45.756;11.432;2023-05-07T05:21:47;16.17;;;14.05;;
23179;SDS011;11758;45.756;11.432;2023-05-07T05:24:13;15.57;;;13.98;;
23179;SDS011;11758;45.756;11.432;2023-05-07T05:26:40;20.92;;;14.73;;
23179;SDS011;11758;45.756;11.432;2023-05-07T05:29:06;15.23;;;13.02;;
23179;SDS011;11758;45.756;11.432;2023-05-07T05:31:32;12.93;;;11.07;;
23179;SDS011;11758;45.756;11.432;2023-05-07T05:33:59;11.32;;;9.10;;
23179;SDS011;11758;45.756;11.432;2023-05-07T05:36:25;9.68;;;8.70;;
23179;SDS011;11758;45.756;11.432;2023-05-07T05:38:51;11.18;;;9.05;;
23179;SDS011;11758;45.756;11.432;2023-05-07T05:41:17;17.70;;;13.50;;
23179;SDS011;11758;45.756;11.432;2023-05-07T05:43:43;9.98;;;8.98;;
23179;SDS011;11758;45.756;11.432;2023-05-07T05:46:10;10.32;;;9.32;;
23179;SDS011;11758;45.756;11.432;2023-05-07T05:48:36;9.50;;;8.60;;
23179;SDS011;11758;45.756;11.432;2023-05-07T05:51:02;12.15;;;8.77;;
23179;SDS011;11758;45.756;11.432;2023-05-07T05:53:28;10.27;;;8.93;;
23179;SDS011;11758;45.756;11.432;2023-05-07T05:55:55;11.68;;;9.35;;
23179;SDS011;11758;45.756;11.432;2023-05-07T05:58:21;10.57;;;9.57;;
23179;SDS011;11758;45.756;11.432;2023-05-07T06:00:47;11.93;;;9.23;;
23179;SDS011;11758;45.756;11.432;2023-05-07T06:03:13;9.25;;;8.18;;
23179;SDS011;11758;45.756;11.432;2023-05-07T06:05:39;10.00;;;9.07;;
23179;SDS011;11758;45.756;11.432;2023-05-07T06:08:06;9.65;;;8.65;;
23179;SDS011;11758;45.756;11.432;2023-05-07T06:10:32;9.82;;;8.25;;
23179;SDS011;11758;45.756;11.432;2023-05-07T06:12:58;9.95;;;8.95;;
23179;SDS011;11758;45.756;11.432;2023-05-07T06:15:24;9.48;;;8.57;;
23179;SDS011;11758;45.756;11.432;2023-05-07T06:17:50;9.55;;;8.65;;
23179;SDS011;11758;45.756;11.432;2023-05-07T06:20:16;9.85;;;8.85;;
23179;SDS011;11758;45.756;11.432;2023-05-07T06:22:42;9.95;;;9.05;;
23179;SDS011;11758;45.756;11.432;2023-05-07T06:25:09;9.25;;;8.45;;
23179;SDS011;11758;45.756;11.432;2023-05-07T06:27:35;11.50;;;10.00;;
23179;SDS011;11758;45.756;11.432;2023-05-07T06:30:02;13.43;;;9.43;;
23179;SDS011;11758;45.756;11.432;2023-05-07T06:32:28;10.05;;;9.15;;
23179;SDS011;11758;45.756;11.432;2023-05-07T06:34:55;13.32;;;9.73;;
23179;SDS011;11758;45.756;11.432;2023-05-07T06:37:21;10.32;;;9.25;;
23179;SDS011;11758;45.756;11.432;2023-05-07T06:39:47;10.27;;;9.25;;
23179;SDS011;11758;45.756;11.432;2023-05-07T06:42:13;10.50;;;9.50;;
23179;SDS011;11758;45.756;11.432;2023-05-07T06:44:39;12.80;;;9.30;;
23179;SDS011;11758;45.756;11.432;2023-05-07T06:47:06;10.82;;;9.82;;
23179;SDS011;11758;45.756;11.432;2023-05-07T06:49:33;11.27;;;10.15;;
23179;SDS011;11758;45.756;11.432;2023-05-07T06:51:59;11.27;;;9.98;;
23179;SDS011;11758;45.756;11.432;2023-05-07T06:54:25;11.10;;;9.93;;
23179;SDS011;11758;45.756;11.432;2023-05-07T06:56:51;11.50;;;10.35;;
23179;SDS011;11758;45.756;11.432;2023-05-07T06:59:17;11.73;;;10.48;;
23179;SDS011;11758;45.756;11.432;2023-05-07T07:01:44;11.50;;;10.35;;
23179;SDS011;11758;45.756;11.432;2023-05-07T07:04:10;14.50;;;11.00;;
23179;SDS011;11758;45.756;11.432;2023-05-07T07:06:36;15.35;;;11.70;;
23179;SDS011;11758;45.756;11.432;2023-05-07T07:09:02;13.23;;;10.90;;
23179;SDS011;11758;45.756;11.432;2023-05-07T07:11:28;18.55;;;11.65;;
23179;SDS011;11758;45.756;11.432;2023-05-07T07:13:55;15.48;;;12.35;;
23179;SDS011;11758;45.756;11.432;2023-05-07T07:16:21;14.30;;;12.60;;
23179;SDS011;11758;45.756;11.432;2023-05-07T07:18:48;14.70;;;12.85;;
23179;SDS011;11758;45.756;11.432;2023-05-07T07:21:18;14.35;;;12.73;;
23179;SDS011;11758;45.756;11.432;2023-05-07T07:23:50;14.43;;;12.57;;
23179;SDS011;11758;45.756;11.432;2023-05-07T07:26:17;14.85;;;12.98;;
23179;SDS011;11758;45.756;11.432;2023-05-07T07:28:52;14.63;;;13.05;;
23179;SDS011;11758;45.756;11.432;2023-05-07T07:31:23;14.93;;;12.90;;
23179;SDS011;11758;45.756;11.432;2023-05-07T07:33:49;13.38;;;12.00;;
23179;SDS011;11758;45.756;11.432;2023-05-07T07:36:15;15.55;;;11.02;;
23179;SDS011;11758;45.756;11.432;2023-05-07T07:38:42;14.60;;;11.88;;
23179;SDS011;11758;45.756;11.432;2023-05-07T07:41:12;12.10;;;10.90;;
23179;SDS011;11758;45.756;11.432;2023-05-07T07:44:09;14.43;;;10.77;;
23179;SDS011;11758;45.756;11.432;2023-05-07T07:46:37;14.13;;;11.98;;
23179;SDS011;11758;45.756;11.432;2023-05-07T07:49:04;12.80;;;11.30;;
23179;SDS011;11758;45.756;11.432;2023-05-07T07:51:30;13.65;;;11.32;;
23179;SDS011;11758;45.756;11.432;2023-05-07T07:53:56;14.30;;;11.82;;
23179;SDS011;11758;45.756;11.432;2023-05-07T07:56:23;12.93;;;11.63;;
23179;SDS011;11758;45.756;11.432;2023-05-07T07:58:50;12.65;;;11.38;;
23179;SDS011;11758;45.756;11.432;2023-05-07T08:01:16;13.90;;;11.02;;
23179;SDS011;11758;45.756;11.432;2023-05-07T08:03:42;12.50;;;11.18;;
23179;SDS011;11758;45.756;11.432;2023-05-07T08:06:09;12.93;;;11.20;;
23179;SDS011;11758;45.756;11.432;2023-05-07T08:08:35;13.88;;;10.43;;
23179;SDS011;11758;45.756;11.432;2023-05-07T08:11:01;11.38;;;10.27;;
23179;SDS011;11758;45.756;11.432;2023-05-07T08:13:28;11.15;;;9.98;;
23179;SDS011;11758;45.756;11.432;2023-05-07T08:15:54;10.82;;;9.73;;
23179;SDS011;11758;45.756;11.432;2023-05-07T08:18:20;11.40;;;10.05;;
23179;SDS011;11758;45.756;11.432;2023-05-07T08:23:51;11.50;;;10.23;;
23179;SDS011;11758;45.756;11.432;2023-05-07T08:26:17;13.65;;;10.40;;
23179;SDS011;11758;45.756;11.432;2023-05-07T08:28:44;13.48;;;9.52;;
23179;SDS011;11758;45.756;11.432;2023-05-07T08:37:31;10.95;;;9.88;;
23179;SDS011;11758;45.756;11.432;2023-05-07T08:40:05;12.07;;;10.10;;
23179;SDS011;11758;45.756;11.432;2023-05-07T08:42:35;10.73;;;9.63;;
23179;SDS011;11758;45.756;11.432;2023-05-07T08:45:07;11.15;;;9.90;;
23179;SDS011;11758;45.756;11.432;2023-05-07T08:47:39;9.95;;;8.60;;
23179;SDS011;11758;45.756;11.432;2023-05-07T08:50:06;10.98;;;8.75;;
23179;SDS011;11758;45.756;11.432;2023-05-07T08:52:32;9.02;;;8.27;;
23179;SDS011;11758;45.756;11.432;2023-05-07T08:54:58;9.10;;;8.07;;
23179;SDS011;11758;45.756;11.432;2023-05-07T08:57:24;8.98;;;8.18;;
23179;SDS011;11758;45.756;11.432;2023-05-07T08:59:51;8.10;;;7.32;;
23179;SDS011;11758;45.756;11.432;2023-05-07T09:02:17;7.88;;;7.22;;
23179;SDS011;11758;45.756;11.432;2023-05-07T09:04:43;8.45;;;7.70;;
23179;SDS011;11758;45.756;11.432;2023-05-07T09:07:09;7.63;;;6.93;;
23179;SDS011;11758;45.756;11.432;2023-05-07T09:09:36;11.75;;;8.00;;
23179;SDS011;11758;45.756;11.432;2023-05-07T09:12:03;11.38;;;8.00;;
23179;SDS011;11758;45.756;11.432;2023-05-07T09:14:30;9.43;;;7.22;;
23179;SDS011;11758;45.756;11.432;2023-05-07T09:16:56;8.57;;;7.45;;
23179;SDS011;11758;45.756;11.432;2023-05-07T09:19:25;8.45;;;7.65;;
23179;SDS011;11758;45.756;11.432;2023-05-07T09:21:59;11.00;;;7.95;;
23179;SDS011;11758;45.756;11.432;2023-05-07T09:24:26;10.40;;;7.55;;
23179;SDS011;11758;45.756;11.432;2023-05-07T09:26:53;8.23;;;7.22;;
23179;SDS011;11758;45.756;11.432;2023-05-07T09:29:20;8.18;;;7.47;;
23179;SDS011;11758;45.756;11.432;2023-05-07T09:31:46;8.00;;;7.22;;
23179;SDS011;11758;45.756;11.432;2023-05-07T09:34:13;13.93;;;10.35;;
23179;SDS011;11758;45.756;11.432;2023-05-07T09:36:43;10.20;;;8.80;;
23179;SDS011;11758;45.756;11.432;2023-05-07T09:39:16;18.00;;;11.18;;
23179;SDS011;11758;45.756;11.432;2023-05-07T09:41:43;13.52;;;9.45;;
23179;SDS011;11758;45.756;11.432;2023-05-07T09:44:10;10.68;;;8.43;;
23179;SDS011;11758;45.756;11.432;2023-05-07T09:46:36;9.65;;;8.02;;
23179;SDS011;11758;45.756;11.432;2023-05-07T09:49:04;11.98;;;7.97;;
23179;SDS011;11758;45.756;11.432;2023-05-07T09:51:57;10.10;;;7.13;;
23179;SDS011;11758;45.756;11.432;2023-05-07T09:54:25;9.82;;;8.63;;
23179;SDS011;11758;45.756;11.432;2023-05-07T09:56:54;10.65;;;8.25;;
23179;SDS011;11758;45.756;11.432;2023-05-07T09:59:21;8.50;;;7.80;;
23179;SDS011;11758;45.756;11.432;2023-05-07T10:01:47;8.95;;;7.82;;
23179;SDS011;11758;45.756;11.432;2023-05-07T10:04:15;8.60;;;7.53;;
23179;SDS011;11758;45.756;11.432;2023-05-07T10:06:41;7.80;;;7.10;;
23179;SDS011;11758;45.756;11.432;2023-05-07T10:09:08;7.63;;;6.90;;
23179;SDS011;11758;45.756;11.432;2023-05-07T10:11:36;8.70;;;7.45;;
23179;SDS011;11758;45.756;11.432;2023-05-07T10:14:03;8.00;;;7.20;;
23179;SDS011;11758;45.756;11.432;2023-05-07T10:16:34;7.75;;;7.15;;
23179;SDS011;11758;45.756;11.432;2023-05-07T10:19:03;10.13;;;7.80;;
23179;SDS011;11758;45.756;11.432;2023-05-07T10:21:30;13.15;;;8.07;;
23179;SDS011;11758;45.756;11.432;2023-05-07T10:24:00;10.57;;;8.55;;
23179;SDS011;11758;45.756;11.432;2023-05-07T10:26:31;13.77;;;9.73;;
23179;SDS011;11758;45.756;11.432;2023-05-07T10:29:05;12.15;;;10.20;;
23179;SDS011;11758;45.756;11.432;2023-05-07T10:33:59;13.30;;;9.55;;
23179;SDS011;11758;45.756;11.432;2023-05-07T10:36:26;12.30;;;10.98;;
23179;SDS011;11758;45.756;11.432;2023-05-07T10:38:53;13.07;;;11.70;;
23179;SDS011;11758;45.756;11.432;2023-05-07T10:41:19;12.65;;;11.07;;
23179;SDS011;11758;45.756;11.432;2023-05-07T10:43:46;14.13;;;12.00;;
23179;SDS011;11758;45.756;11.432;2023-05-07T10:51:23;16.00;;;13.50;;
23179;SDS011;11758;45.756;11.432;2023-05-07T10:54:10;16.30;;;13.48;;
23179;SDS011;11758;45.756;11.432;2023-05-07T10:56:36;21.25;;;13.68;;
23179;SDS011;11758;45.756;11.432;2023-05-07T11:01:52;17.00;;;14.38;;
23179;SDS011;11758;45.756;11.432;2023-05-07T11:04:19;17.20;;;13.65;;
23179;SDS011;11758;45.756;11.432;2023-05-07T11:15:06;19.23;;;14.77;;
23179;SDS011;11758;45.756;11.432;2023-05-07T11:17:33;18.13;;;12.77;;
23179;SDS011;11758;45.756;11.432;2023-05-07T11:20:00;14.32;;;12.60;;
23179;SDS011;11758;45.756;11.432;2023-05-07T11:24:57;18.77;;;16.00;;
23179;SDS011;11758;45.756;11.432;2023-05-07T11:27:28;17.33;;;13.75;;
23179;SDS011;11758;45.756;11.432;2023-05-07T11:29:54;19.20;;;16.13;;
23179;SDS011;11758;45.756;11.432;2023-05-07T11:32:24;18.90;;;14.95;;
23179;SDS011;11758;45.756;11.432;2023-05-07T11:34:54;20.80;;;15.40;;
23179;SDS011;11758;45.756;11.432;2023-05-07T11:37:20;19.20;;;14.95;;
23179;SDS011;11758;45.756;11.432;2023-05-07T11:39:47;19.05;;;15.55;;
23179;SDS011;11758;45.756;11.432;2023-05-07T11:42:30;15.88;;;14.05;;
23179;SDS011;11758;45.756;11.432;2023-05-07T11:44:56;21.10;;;14.63;;
23179;SDS011;11758;45.756;11.432;2023-05-07T11:47:23;16.40;;;14.73;;
23179;SDS011;11758;45.756;11.432;2023-05-07T11:49:51;16.63;;;14.40;;
23179;SDS011;11758;45.756;11.432;2023-05-07T11:52:22;17.35;;;14.75;;
23179;SDS011;11758;45.756;11.432;2023-05-07T11:54:52;17.55;;;14.10;;
23179;SDS011;11758;45.756;11.432;2023-05-07T11:57:20;18.38;;;14.63;;
23179;SDS011;11758;45.756;11.432;2023-05-07T11:59:46;15.43;;;13.57;;
23179;SDS011;11758;45.756;11.432;2023-05-07T12:02:13;16.33;;;14.48;;
23179;SDS011;11758;45.756;11.432;2023-05-07T12:04:40;19.55;;;13.93;;
23179;SDS011;11758;45.756;11.432;2023-05-07T12:07:15;21.38;;;15.00;;
23179;SDS011;11758;45.756;11.432;2023-05-07T12:09:43;20.40;;;14.73;;
23179;SDS011;11758;45.756;11.432;2023-05-07T12:12:09;16.42;;;14.52;;
23179;SDS011;11758;45.756;11.432;2023-05-07T12:14:41;16.83;;;13.70;;
23179;SDS011;11758;45.756;11.432;2023-05-07T12:17:08;15.63;;;13.82;;
23179;SDS011;11758;45.756;11.432;2023-05-07T12:19:35;14.85;;;13.35;;
23179;SDS011;11758;45.756;11.432;2023-05-07T12:22:05;15.32;;;13.35;;
23179;SDS011;11758;45.756;11.432;2023-05-07T12:24:56;13.68;;;12.30;;
23179;SDS011;11758;45.756;11.432;2023-05-07T12:27:22;18.67;;;13.40;;
23179;SDS011;11758;45.756;11.432;2023-05-07T12:29:49;18.42;;;14.40;;
23179;SDS011;11758;45.756;11.432;2023-05-07T12:32:19;15.60;;;13.68;;
23179;SDS011;11758;45.756;11.432;2023-05-07T12:34:46;14.27;;;12.63;;
23179;SDS011;11758;45.756;11.432;2023-05-07T12:37:12;14.52;;;13.05;;
23179;SDS011;11758;45.756;11.432;2023-05-07T12:39:44;14.98;;;13.55;;
23179;SDS011;11758;45.756;11.432;2023-05-07T12:42:10;14.18;;;12.65;;
23179;SDS011;11758;45.756;11.432;2023-05-07T12:44:45;15.18;;;13.57;;
23179;SDS011;11758;45.756;11.432;2023-05-07T12:47:21;18.00;;;13.63;;
23179;SDS011;11758;45.756;11.432;2023-05-07T12:49:50;14.00;;;12.32;;
23179;SDS011;11758;45.756;11.432;2023-05-07T12:52:16;13.60;;;12.23;;
23179;SDS011;11758;45.756;11.432;2023-05-07T12:54:42;13.82;;;12.43;;
23179;SDS011;11758;45.756;11.432;2023-05-07T12:57:10;13.13;;;11.75;;
23179;SDS011;11758;45.756;11.432;2023-05-07T12:59:36;11.50;;;10.27;;
23179;SDS011;11758;45.756;11.432;2023-05-07T13:02:03;12.15;;;11.00;;
23179;SDS011;11758;45.756;11.432;2023-05-07T13:04:30;12.85;;;11.57;;
23179;SDS011;11758;45.756;11.432;2023-05-07T13:06:56;10.98;;;9.98;;
23179;SDS011;11758;45.756;11.432;2023-05-07T13:09:22;11.13;;;9.98;;
23179;SDS011;11758;45.756;11.432;2023-05-07T13:11:48;9.27;;;8.48;;
23179;SDS011;11758;45.756;11.432;2023-05-07T13:14:14;8.57;;;7.80;;
23179;SDS011;11758;45.756;11.432;2023-05-07T13:16:40;8.82;;;7.95;;
23179;SDS011;11758;45.756;11.432;2023-05-07T13:19:07;8.50;;;7.57;;
23179;SDS011;11758;45.756;11.432;2023-05-07T13:21:34;9.13;;;8.32;;
23179;SDS011;11758;45.756;11.432;2023-05-07T13:24:00;10.60;;;9.60;;
23179;SDS011;11758;45.756;11.432;2023-05-07T13:26:26;9.65;;;8.75;;
23179;SDS011;11758;45.756;11.432;2023-05-07T13:28:53;10.73;;;9.60;;
23179;SDS011;11758;45.756;11.432;2023-05-07T13:31:19;9.75;;;8.85;;
23179;SDS011;11758;45.756;11.432;2023-05-07T13:33:46;12.35;;;9.05;;
23179;SDS011;11758;45.756;11.432;2023-05-07T13:36:14;13.25;;;9.40;;
23179;SDS011;11758;45.756;11.432;2023-05-07T13:38:40;11.18;;;9.77;;
23179;SDS011;11758;45.756;11.432;2023-05-07T13:41:06;10.82;;;9.43;;
23179;SDS011;11758;45.756;11.432;2023-05-07T13:43:32;11.88;;;9.23;;
23179;SDS011;11758;45.756;11.432;2023-05-07T13:45:59;10.43;;;9.38;;
23179;SDS011;11758;45.756;11.432;2023-05-07T13:48:25;9.63;;;8.60;;
23179;SDS011;11758;45.756;11.432;2023-05-07T13:50:51;15.07;;;10.35;;
23179;SDS011;11758;45.756;11.432;2023-05-07T13:53:18;12.18;;;9.70;;
23179;SDS011;11758;45.756;11.432;2023-05-07T13:55:44;10.75;;;7.85;;
23179;SDS011;11758;45.756;11.432;2023-05-07T13:58:10;9.95;;;8.35;;
23179;SDS011;11758;45.756;11.432;2023-05-07T14:00:37;13.57;;;11.98;;
23179;SDS011;11758;45.756;11.432;2023-05-07T14:03:04;9.52;;;8.68;;
23179;SDS011;11758;45.756;11.432;2023-05-07T14:05:30;8.82;;;7.90;;
23179;SDS011;11758;45.756;11.432;2023-05-07T14:07:57;12.15;;;10.95;;
23179;SDS011;11758;45.756;11.432;2023-05-07T14:10:23;16.85;;;12.25;;
23179;SDS011;11758;45.756;11.432;2023-05-07T14:12:49;8.15;;;7.45;;
23179;SDS011;11758;45.756;11.432;2023-05-07T14:15:15;8.32;;;7.53;;
23179;SDS011;11758;45.756;11.432;2023-05-07T14:17:42;8.63;;;7.82;;
23179;SDS011;11758;45.756;11.432;2023-05-07T14:20:08;8.95;;;8.07;;
23179;SDS011;11758;45.756;11.432;2023-05-07T14:22:35;14.18;;;10.73;;
23179;SDS011;11758;45.756;11.432;2023-05-07T14:25:02;11.63;;;10.13;;
23179;SDS011;11758;45.756;11.432;2023-05-07T14:27:29;13.18;;;10.00;;
23179;SDS011;11758;45.756;11.432;2023-05-07T14:29:56;13.00;;;11.05;;
23179;SDS011;11758;45.756;11.432;2023-05-07T14:32:23;13.35;;;11.63;;
23179;SDS011;11758;45.756;11.432;2023-05-07T14:34:50;14.63;;;13.07;;
23179;SDS011;11758;45.756;11.432;2023-05-07T14:37:16;15.07;;;11.85;;
23179;SDS011;11758;45.756;11.432;2023-05-07T14:39:44;15.02;;;12.68;;
23179;SDS011;11758;45.756;11.432;2023-05-07T14:42:10;18.33;;;12.55;;
23179;SDS011;11758;45.756;11.432;2023-05-07T14:44:37;16.73;;;14.60;;